createdAt,value
2018-11-10T00:00:34.462Z,0
2018-11-10T00:01:33.122Z,0
2018-11-10T00:02:31.658Z,0
2018-11-10T00:03:30.190Z,0
2018-11-10T00:04:28.731Z,0
2018-11-10T00:05:27.534Z,0
2018-11-10T00:06:26.061Z,0
2018-11-10T00:07:24.608Z,0
2018-11-10T00:08:23.280Z,0
2018-11-10T00:09:21.821Z,0
2018-11-10T00:10:20.349Z,0
2018-11-10T00:11:18.934Z,0
2018-11-10T00:12:17.494Z,0
2018-11-10T00:13:16.027Z,0
2018-11-10T00:14:14.551Z,0
2018-11-10T00:15:13.071Z,0
2018-11-10T00:16:11.614Z,0
2018-11-10T00:17:10.123Z,0
2018-11-10T00:18:08.668Z,0
2018-11-10T00:19:07.243Z,0
2018-11-10T00:20:05.833Z,0
2018-11-10T00:21:04.373Z,0
2018-11-10T00:22:02.893Z,0
2018-11-10T00:23:01.487Z,0
2018-11-10T00:24:00.268Z,0
2018-11-10T00:24:58.856Z,0
2018-11-10T00:25:57.490Z,0
2018-11-10T00:26:56.039Z,0
2018-11-10T00:27:54.559Z,0
2018-11-10T00:31:01.940Z,0
2018-11-10T00:32:00.464Z,0
2018-11-10T00:32:59.018Z,0
2018-11-10T00:33:57.529Z,0
2018-11-10T00:34:56.054Z,0
2018-11-10T00:35:54.584Z,0
2018-11-10T00:36:53.117Z,0
2018-11-10T00:37:51.649Z,0
2018-11-10T00:38:50.178Z,0
2018-11-10T00:39:48.731Z,0
2018-11-10T00:40:47.241Z,0
2018-11-10T00:41:45.775Z,0
2018-11-10T00:42:44.301Z,0
2018-11-10T00:43:42.868Z,0
2018-11-10T00:44:41.515Z,0
2018-11-10T00:45:40.067Z,0
2018-11-10T00:46:38.590Z,0
2018-11-10T00:47:37.229Z,0
2018-11-10T00:48:35.774Z,0
2018-11-10T00:49:34.287Z,0
2018-11-10T00:50:32.869Z,0
2018-11-10T00:51:31.524Z,0
2018-11-10T00:52:30.039Z,0
2018-11-10T00:53:28.563Z,0
2018-11-10T00:54:27.147Z,0
2018-11-10T00:55:25.746Z,0
2018-11-10T00:56:24.294Z,0
2018-11-10T00:57:22.955Z,0
2018-11-10T00:58:21.463Z,0
2018-11-10T00:59:20.107Z,0
2018-11-10T01:00:18.625Z,0
2018-11-10T01:01:17.144Z,0
2018-11-10T01:02:15.682Z,0
2018-11-10T01:03:14.204Z,0
2018-11-10T01:04:12.797Z,0
2018-11-10T01:05:11.351Z,0
2018-11-10T01:06:09.886Z,0
2018-11-10T01:07:08.409Z,0
2018-11-10T01:08:07.036Z,0
2018-11-10T01:09:05.684Z,0
2018-11-10T01:10:04.195Z,0
2018-11-10T01:11:02.826Z,0
2018-11-10T01:12:01.675Z,0
2018-11-10T01:13:00.192Z,0
2018-11-10T01:13:58.693Z,0
2018-11-10T01:14:57.204Z,0
2018-11-10T01:15:55.805Z,0
2018-11-10T01:16:54.312Z,0
2018-11-10T01:17:52.851Z,0
2018-11-10T01:18:51.384Z,0
2018-11-10T01:19:49.904Z,0
2018-11-10T01:20:48.431Z,0
2018-11-10T01:21:46.960Z,0
2018-11-10T01:22:45.496Z,0
2018-11-10T01:23:44.013Z,0
2018-11-10T01:24:42.569Z,0
2018-11-10T01:25:41.086Z,0
2018-11-10T01:26:39.625Z,0
2018-11-10T01:27:38.163Z,0
2018-11-10T01:28:36.669Z,0
2018-11-10T01:29:35.331Z,0
2018-11-10T01:30:33.942Z,0
2018-11-10T01:31:32.488Z,0
2018-11-10T01:32:31.045Z,0
2018-11-10T01:33:29.593Z,0
2018-11-10T01:34:28.117Z,0
2018-11-10T01:35:26.712Z,0
2018-11-10T01:36:25.268Z,0
2018-11-10T01:37:23.916Z,0
2018-11-10T01:38:22.447Z,0
2018-11-10T01:39:21.021Z,0
2018-11-10T01:40:19.547Z,0
2018-11-10T01:43:25.912Z,0
2018-11-10T01:44:24.432Z,0
2018-11-10T01:45:23.027Z,0
2018-11-10T01:46:21.576Z,0
2018-11-10T01:47:20.092Z,0
2018-11-10T01:48:18.621Z,0
2018-11-10T01:49:17.148Z,0
2018-11-10T01:50:15.675Z,0
2018-11-10T01:51:14.258Z,0
2018-11-10T01:52:12.773Z,0
2018-11-10T01:53:11.309Z,0
2018-11-10T01:54:09.831Z,0
2018-11-10T01:55:08.373Z,0
2018-11-10T01:56:06.898Z,0
2018-11-10T01:57:05.485Z,0
2018-11-10T01:58:04.059Z,0
2018-11-10T01:59:02.609Z,0
2018-11-10T02:00:01.375Z,0
2018-11-10T02:00:59.909Z,0
2018-11-10T02:01:58.451Z,0
2018-11-10T02:02:57.034Z,0
2018-11-10T02:03:55.684Z,0
2018-11-10T02:04:54.235Z,0
2018-11-10T02:05:52.764Z,0
2018-11-10T02:06:51.405Z,0
2018-11-10T02:07:49.822Z,0
2018-11-10T02:08:48.337Z,0
2018-11-10T02:09:46.890Z,0
2018-11-10T02:10:45.521Z,0
2018-11-10T02:11:44.055Z,0
2018-11-10T02:12:42.570Z,0
2018-11-10T02:13:41.139Z,0
2018-11-10T02:14:39.659Z,0
2018-11-10T02:15:38.197Z,0
2018-11-10T02:16:36.725Z,0
2018-11-10T02:17:35.252Z,0
2018-11-10T02:18:33.792Z,0
2018-11-10T02:19:32.336Z,0
2018-11-10T02:20:30.891Z,0
2018-11-10T02:21:29.551Z,0
2018-11-10T02:22:28.079Z,0
2018-11-10T02:23:26.590Z,0
2018-11-10T02:24:25.135Z,0
2018-11-10T02:25:23.767Z,0
2018-11-10T02:26:22.295Z,0
2018-11-10T02:27:21.138Z,0
2018-11-10T02:28:19.652Z,0
2018-11-10T02:29:18.174Z,0
2018-11-10T02:30:16.765Z,0
2018-11-10T02:31:15.351Z,0
2018-11-10T02:32:13.883Z,0
2018-11-10T02:33:12.379Z,0
2018-11-10T02:34:10.903Z,0
2018-11-10T02:35:09.415Z,0
2018-11-10T02:36:08.070Z,0
2018-11-10T02:37:06.626Z,0
2018-11-10T02:38:05.111Z,0
2018-11-10T02:39:03.632Z,0
2018-11-10T02:40:02.148Z,0
2018-11-10T02:41:00.682Z,0
2018-11-10T02:41:59.195Z,0
2018-11-10T02:42:57.742Z,0
2018-11-10T02:43:56.247Z,0
2018-11-10T02:44:54.877Z,0
2018-11-10T02:45:53.512Z,0
2018-11-10T02:46:52.064Z,0
2018-11-10T02:47:50.584Z,0
2018-11-10T02:48:49.129Z,0
2018-11-10T02:49:47.770Z,0
2018-11-10T02:50:46.301Z,0
2018-11-10T02:51:44.850Z,0
2018-11-10T02:52:43.591Z,0
2018-11-10T02:53:42.001Z,0
2018-11-10T02:54:40.568Z,0
2018-11-10T02:55:39.240Z,0
2018-11-10T02:56:37.801Z,0
2018-11-10T02:57:36.326Z,0
2018-11-10T02:58:34.861Z,0
2018-11-10T02:59:33.381Z,0
2018-11-10T03:00:31.898Z,0
2018-11-10T03:01:30.428Z,0
2018-11-10T03:02:28.955Z,0
2018-11-10T03:03:27.482Z,0
2018-11-10T03:04:26.035Z,0
2018-11-10T03:05:24.553Z,0
2018-11-10T03:06:23.086Z,0
2018-11-10T03:07:21.591Z,0
2018-11-10T03:08:20.139Z,0
2018-11-10T03:09:18.668Z,0
2018-11-10T03:10:17.194Z,0
2018-11-10T03:11:15.738Z,0
2018-11-10T03:12:14.260Z,0
2018-11-10T03:13:12.769Z,0
2018-11-10T03:14:11.449Z,0
2018-11-10T03:15:09.998Z,0
2018-11-10T03:16:08.593Z,0
2018-11-10T03:17:07.318Z,0
2018-11-10T03:18:05.973Z,0
2018-11-10T03:19:04.506Z,0
2018-11-10T03:20:03.135Z,0
2018-11-10T03:21:01.751Z,0
2018-11-10T03:22:00.271Z,0
2018-11-10T03:22:58.809Z,0
2018-11-10T03:23:57.332Z,0
2018-11-10T03:24:55.932Z,0
2018-11-10T03:25:54.461Z,0
2018-11-10T03:26:53.119Z,0
2018-11-10T03:27:51.624Z,0
2018-11-10T03:28:50.152Z,0
2018-11-10T03:29:48.749Z,0
2018-11-10T03:30:47.344Z,0
2018-11-10T03:31:45.891Z,0
2018-11-10T03:32:44.418Z,0
2018-11-10T03:33:43.038Z,0
2018-11-10T03:34:41.609Z,0
2018-11-10T03:35:40.126Z,0
2018-11-10T03:36:38.656Z,0
2018-11-10T03:37:37.427Z,0
2018-11-10T03:38:35.963Z,0
2018-11-10T03:39:34.474Z,0
2018-11-10T03:40:33.066Z,0
2018-11-10T03:41:31.605Z,0
2018-11-10T03:42:30.153Z,0
2018-11-10T03:43:28.636Z,0
2018-11-10T03:44:27.176Z,0
2018-11-10T03:45:25.693Z,0
2018-11-10T03:46:24.227Z,0
2018-11-10T03:47:22.783Z,0
2018-11-10T03:48:21.307Z,0
2018-11-10T03:49:19.837Z,0
2018-11-10T03:50:18.371Z,0
2018-11-10T03:51:16.884Z,0
2018-11-10T03:52:15.417Z,0
2018-11-10T03:53:13.925Z,0
2018-11-10T03:54:12.460Z,0
2018-11-10T03:55:11.005Z,0
2018-11-10T03:56:09.557Z,0
2018-11-10T03:57:08.086Z,0
2018-11-10T03:58:06.723Z,0
2018-11-10T03:59:05.344Z,0
2018-11-10T04:00:03.913Z,0
2018-11-10T04:01:02.444Z,0
2018-11-10T04:02:00.968Z,0
2018-11-10T04:02:59.608Z,0
2018-11-10T04:03:58.104Z,0
2018-11-10T04:04:56.640Z,0
2018-11-10T04:05:55.207Z,0
2018-11-10T04:06:53.803Z,0
2018-11-10T04:07:52.348Z,0
2018-11-10T04:08:50.869Z,0
2018-11-10T04:09:49.450Z,0
2018-11-10T04:10:47.985Z,0
2018-11-10T04:11:46.516Z,0
2018-11-10T04:12:45.054Z,0
2018-11-10T04:13:43.664Z,0
2018-11-10T04:14:42.190Z,0
2018-11-10T04:15:40.709Z,0
2018-11-10T04:18:14.628Z,0
2018-11-10T04:19:13.155Z,0
2018-11-10T04:20:11.800Z,0
2018-11-10T04:21:10.332Z,0
2018-11-10T04:22:08.880Z,0
2018-11-10T04:23:07.416Z,0
2018-11-10T04:24:05.931Z,0
2018-11-10T04:25:04.457Z,0
2018-11-10T04:28:43.425Z,0
2018-11-10T04:29:41.987Z,0
2018-11-10T04:30:40.514Z,0
2018-11-10T04:31:39.119Z,0
2018-11-10T04:32:37.801Z,0
2018-11-10T04:33:36.316Z,0
2018-11-10T04:34:34.862Z,0
2018-11-10T04:35:33.485Z,0
2018-11-10T04:36:31.997Z,0
2018-11-10T04:37:30.528Z,0
2018-11-10T04:38:29.043Z,0
2018-11-10T04:39:27.567Z,0
2018-11-10T04:40:26.099Z,0
2018-11-10T04:41:24.627Z,0
2018-11-10T04:42:23.144Z,0
2018-11-10T04:43:21.679Z,0
2018-11-10T04:44:20.204Z,0
2018-11-10T04:45:18.738Z,0
2018-11-10T04:46:17.271Z,0
2018-11-10T04:47:15.807Z,0
2018-11-10T04:48:14.323Z,0
2018-11-10T04:49:12.877Z,0
2018-11-10T04:50:11.448Z,0
2018-11-10T04:51:10.024Z,0
2018-11-10T04:52:08.511Z,0
2018-11-10T04:53:07.176Z,0
2018-11-10T04:54:05.844Z,0
2018-11-10T04:55:04.380Z,0
2018-11-10T04:56:02.995Z,0
2018-11-10T04:57:01.616Z,0
2018-11-10T04:58:00.156Z,0
2018-11-10T04:58:58.671Z,0
2018-11-10T04:59:57.336Z,0
2018-11-10T05:00:55.881Z,0
2018-11-10T05:01:54.401Z,0
2018-11-10T05:02:52.971Z,0
2018-11-10T05:03:51.558Z,0
2018-11-10T05:04:50.094Z,0
2018-11-10T05:05:48.636Z,0
2018-11-10T05:06:47.171Z,0
2018-11-10T05:07:45.701Z,0
2018-11-10T05:08:44.230Z,0
2018-11-10T05:09:42.769Z,0
2018-11-10T05:10:41.304Z,0
2018-11-10T05:11:39.826Z,0
2018-11-10T05:12:38.331Z,0
2018-11-10T05:13:36.989Z,0
2018-11-10T05:14:35.573Z,0
2018-11-10T05:15:34.117Z,0
2018-11-10T05:16:32.638Z,0
2018-11-10T05:17:31.185Z,0
2018-11-10T05:18:29.750Z,0
2018-11-10T05:19:28.276Z,0
2018-11-10T05:20:27.003Z,0
2018-11-10T05:21:25.681Z,0
2018-11-10T05:22:24.240Z,0
2018-11-10T05:23:22.734Z,0
2018-11-10T05:24:21.315Z,0
2018-11-10T05:25:19.868Z,0
2018-11-10T05:26:18.407Z,0
2018-11-10T05:27:16.917Z,0
2018-11-10T05:28:15.465Z,0
2018-11-10T05:29:14.018Z,0
2018-11-10T05:30:12.528Z,0
2018-11-10T05:31:11.097Z,0
2018-11-10T05:32:09.598Z,0
2018-11-10T05:33:08.118Z,0
2018-11-10T05:34:06.699Z,0
2018-11-10T05:35:05.241Z,0
2018-11-10T05:36:03.799Z,0
2018-11-10T05:37:02.352Z,0
2018-11-10T05:38:08.120Z,0
2018-11-10T05:39:06.658Z,0
2018-11-10T05:40:05.456Z,0
2018-11-10T05:41:03.972Z,0
2018-11-10T05:42:02.538Z,0
2018-11-10T05:43:01.076Z,0
2018-11-10T05:43:59.596Z,0
2018-11-10T05:44:58.127Z,0
2018-11-10T05:45:56.699Z,0
2018-11-10T05:46:55.242Z,0
2018-11-10T05:47:53.769Z,0
2018-11-10T05:48:52.306Z,0
2018-11-10T05:49:50.904Z,0
2018-11-10T05:50:49.521Z,0
2018-11-10T05:51:48.069Z,0
2018-11-10T05:52:46.580Z,0
2018-11-10T05:55:26.720Z,0
2018-11-10T05:56:25.304Z,0
2018-11-10T05:57:24.028Z,0
2018-11-10T05:58:22.554Z,0
2018-11-10T05:59:21.207Z,0
2018-11-10T06:00:19.746Z,0
2018-11-10T06:01:18.273Z,0
2018-11-10T06:02:16.792Z,0
2018-11-10T06:03:15.431Z,0
2018-11-10T06:04:13.831Z,0
2018-11-10T06:05:12.346Z,0
2018-11-10T06:06:10.904Z,0
2018-11-10T06:07:09.427Z,0
2018-11-10T06:08:07.973Z,0
2018-11-10T06:09:06.514Z,0
2018-11-10T06:10:05.302Z,0
2018-11-10T06:11:03.832Z,0
2018-11-10T06:12:02.356Z,0
2018-11-10T06:13:00.912Z,0
2018-11-10T06:13:59.606Z,0
2018-11-10T06:14:58.118Z,0
2018-11-10T06:15:56.634Z,0
2018-11-10T06:16:55.242Z,0
2018-11-10T06:17:53.797Z,0
2018-11-10T06:18:52.412Z,0
2018-11-10T06:19:51.024Z,0
2018-11-10T06:20:49.622Z,0
2018-11-10T06:21:48.148Z,0
2018-11-10T06:22:46.686Z,0
2018-11-10T06:23:45.213Z,0
2018-11-10T06:26:25.498Z,5
2018-11-10T06:27:24.027Z,5
2018-11-10T06:28:22.551Z,0
2018-11-10T06:29:21.221Z,0
2018-11-10T06:30:19.738Z,0
2018-11-10T06:31:18.286Z,0
2018-11-10T06:32:16.816Z,0
2018-11-10T06:33:15.418Z,0
2018-11-10T06:34:14.095Z,0
2018-11-10T06:35:12.643Z,0
2018-11-10T06:36:11.290Z,0
2018-11-10T06:37:09.816Z,0
2018-11-10T06:38:08.355Z,5
2018-11-10T06:39:06.888Z,5
2018-11-10T06:40:05.396Z,5
2018-11-10T06:41:03.924Z,5
2018-11-10T06:42:02.456Z,5
2018-11-10T06:43:00.988Z,5
2018-11-10T06:48:04.357Z,5
2018-11-10T06:49:03.035Z,10
2018-11-10T06:50:01.618Z,10
2018-11-10T06:51:00.146Z,10
2018-11-10T06:51:58.679Z,10
2018-11-10T06:52:57.495Z,10
2018-11-10T06:55:37.731Z,15
2018-11-10T06:56:36.276Z,15
2018-11-10T06:57:34.875Z,15
2018-11-10T06:58:33.642Z,15
2018-11-10T06:59:32.163Z,20
2018-11-10T07:00:30.664Z,20
2018-11-10T07:01:29.457Z,20
2018-11-10T07:02:28.154Z,20
2018-11-10T07:03:26.771Z,20
2018-11-10T07:04:25.305Z,20
2018-11-10T07:05:23.848Z,20
2018-11-10T07:06:22.424Z,25
2018-11-10T07:07:21.004Z,25
2018-11-10T07:08:19.537Z,25
2018-11-10T07:09:18.254Z,25
2018-11-10T07:10:16.863Z,25
2018-11-10T07:11:15.453Z,25
2018-11-10T07:12:14.075Z,25
2018-11-10T07:13:12.628Z,25
2018-11-10T07:14:11.413Z,25
2018-11-10T07:15:09.925Z,25
2018-11-10T07:16:08.505Z,25
2018-11-10T07:17:07.013Z,25
2018-11-10T07:18:05.582Z,25
2018-11-10T07:19:04.127Z,25
2018-11-10T07:20:02.627Z,25
2018-11-10T07:21:01.176Z,25
2018-11-10T07:21:59.685Z,25
2018-11-10T07:22:58.204Z,20
2018-11-10T07:23:56.766Z,20
2018-11-10T07:24:55.356Z,20
2018-11-10T07:25:53.849Z,25
2018-11-10T07:26:52.390Z,25
2018-11-10T07:27:50.937Z,25
2018-11-10T07:28:49.612Z,30
2018-11-10T07:29:48.188Z,30
2018-11-10T07:30:46.701Z,30
2018-11-10T07:31:45.481Z,30
2018-11-10T07:32:44.008Z,30
2018-11-10T07:33:42.517Z,30
2018-11-10T07:34:41.097Z,30
2018-11-10T07:35:39.683Z,30
2018-11-10T07:36:38.273Z,25
2018-11-10T07:37:36.954Z,25
2018-11-10T07:38:35.420Z,30
2018-11-10T07:39:33.995Z,30
2018-11-10T07:43:12.990Z,30
2018-11-10T07:44:11.552Z,35
2018-11-10T07:45:10.109Z,35
2018-11-10T07:46:08.630Z,40
2018-11-10T07:47:07.449Z,40
2018-11-10T07:48:06.000Z,40
2018-11-10T07:49:04.520Z,45
2018-11-10T07:50:03.050Z,45
2018-11-10T07:51:01.598Z,45
2018-11-10T07:52:00.108Z,50
2018-11-10T07:52:58.624Z,50
2018-11-10T07:53:57.154Z,50
2018-11-10T07:54:55.677Z,50
2018-11-10T07:55:54.264Z,50
2018-11-10T07:56:52.756Z,50
2018-11-10T07:57:51.280Z,45
2018-11-10T07:58:49.845Z,45
2018-11-10T07:59:48.402Z,45
2018-11-10T08:00:46.953Z,45
2018-11-10T08:01:45.510Z,45
2018-11-10T08:02:44.070Z,45
2018-11-10T08:03:42.625Z,40
2018-11-10T08:04:41.243Z,40
2018-11-10T08:05:39.883Z,40
2018-11-10T08:06:38.410Z,40
2018-11-10T08:07:37.008Z,40
2018-11-10T08:08:35.629Z,35
2018-11-10T08:09:34.214Z,35
2018-11-10T08:10:32.781Z,35
2018-11-10T08:11:31.389Z,35
2018-11-10T08:12:29.918Z,35
2018-11-10T08:13:28.484Z,35
2018-11-10T08:14:27.046Z,35
2018-11-10T08:15:25.607Z,35
2018-11-10T08:16:24.260Z,35
2018-11-10T08:19:04.174Z,35
2018-11-10T08:20:02.767Z,35
2018-11-10T08:21:01.353Z,35
2018-11-10T08:21:59.896Z,35
2018-11-10T08:22:58.456Z,35
2018-11-10T08:23:57.041Z,40
2018-11-10T08:24:55.673Z,40
2018-11-10T08:25:54.288Z,45
2018-11-10T08:26:52.809Z,45
2018-11-10T08:27:51.561Z,45
2018-11-10T08:28:50.117Z,50
2018-11-10T08:29:48.644Z,55
2018-11-10T08:30:47.203Z,55
2018-11-10T08:31:45.734Z,55
2018-11-10T08:32:44.268Z,55
2018-11-10T08:33:42.801Z,60
2018-11-10T08:34:41.347Z,60
2018-11-10T08:35:39.841Z,60
2018-11-10T08:36:38.396Z,60
2018-11-10T08:37:37.025Z,65
2018-11-10T08:38:35.652Z,65
2018-11-10T08:39:34.198Z,70
2018-11-10T08:40:32.762Z,70
2018-11-10T08:41:31.434Z,70
2018-11-10T08:42:30.126Z,70
2018-11-10T08:45:10.220Z,80
2018-11-10T08:46:08.796Z,80
2018-11-10T08:47:07.315Z,85
2018-11-10T08:48:05.893Z,85
2018-11-10T08:49:04.457Z,85
2018-11-10T08:50:02.973Z,85
2018-11-10T08:51:01.497Z,85
2018-11-10T08:52:00.024Z,85
2018-11-10T08:52:58.568Z,85
2018-11-10T08:53:57.094Z,85
2018-11-10T08:54:55.609Z,85
2018-11-10T08:55:54.147Z,85
2018-11-10T08:56:52.810Z,85
2018-11-10T08:57:51.471Z,85
2018-11-10T08:58:50.056Z,85
2018-11-10T08:59:48.669Z,85
2018-11-10T09:00:47.312Z,85
2018-11-10T09:03:27.459Z,85
2018-11-10T09:04:25.994Z,80
2018-11-10T09:05:24.531Z,80
2018-11-10T09:06:23.098Z,80
2018-11-10T09:07:21.617Z,75
2018-11-10T09:08:20.181Z,80
2018-11-10T09:09:18.932Z,85
2018-11-10T09:10:17.563Z,90
2018-11-10T09:11:16.110Z,95
2018-11-10T09:12:14.666Z,100
2018-11-10T09:13:13.418Z,100
2018-11-10T09:14:12.011Z,105
2018-11-10T09:15:10.714Z,105
2018-11-10T09:16:09.168Z,105
2018-11-10T09:17:07.765Z,100
2018-11-10T09:18:06.279Z,100
2018-11-10T09:19:04.819Z,100
2018-11-10T09:20:03.342Z,105
2018-11-10T09:21:01.895Z,105
2018-11-10T09:22:00.394Z,105
2018-11-10T09:22:58.898Z,105
2018-11-10T09:23:57.435Z,105
2018-11-10T09:24:55.984Z,105
2018-11-10T09:25:54.521Z,105
2018-11-10T09:26:53.069Z,100
2018-11-10T09:27:51.626Z,105
2018-11-10T09:28:50.126Z,110
2018-11-10T09:29:48.649Z,115
2018-11-10T09:30:47.337Z,110
2018-11-10T09:31:45.922Z,110
2018-11-10T09:32:44.464Z,110
2018-11-10T09:33:42.994Z,110
2018-11-10T09:37:21.918Z,105
2018-11-10T09:38:20.448Z,105
2018-11-10T09:39:19.263Z,105
2018-11-10T09:40:17.780Z,105
2018-11-10T09:41:16.328Z,105
2018-11-10T09:42:14.955Z,105
2018-11-10T09:43:13.455Z,105
2018-11-10T09:44:12.145Z,105
2018-11-10T09:45:10.666Z,105
2018-11-10T09:46:09.316Z,105
2018-11-10T09:47:07.952Z,100
2018-11-10T09:48:06.493Z,95
2018-11-10T09:49:05.144Z,90
2018-11-10T09:50:03.699Z,90
2018-11-10T09:51:02.366Z,90
2018-11-10T09:52:00.818Z,90
2018-11-10T09:52:59.432Z,90
2018-11-10T09:53:57.986Z,95
2018-11-10T09:54:56.539Z,95
2018-11-10T09:55:55.147Z,95
2018-11-10T09:56:53.919Z,100
2018-11-10T09:57:52.440Z,105
2018-11-10T09:58:51.003Z,105
2018-11-10T09:59:49.578Z,105
2018-11-10T10:00:48.230Z,105
2018-11-10T10:01:46.972Z,105
2018-11-10T10:02:45.809Z,105
2018-11-10T10:05:08.214Z,105
2018-11-10T10:06:06.744Z,105
2018-11-10T10:07:05.360Z,100
2018-11-10T10:08:03.894Z,100
2018-11-10T10:09:02.677Z,100
2018-11-10T10:10:01.381Z,100
2018-11-10T10:10:59.923Z,100
2018-11-10T10:11:58.515Z,100
2018-11-10T10:12:57.696Z,100
2018-11-10T10:13:56.314Z,105
2018-11-10T10:14:54.989Z,105
2018-11-10T10:17:35.239Z,95
2018-11-10T10:18:33.899Z,95
2018-11-10T10:19:32.470Z,90
2018-11-10T10:20:31.123Z,90
2018-11-10T10:21:29.754Z,90
2018-11-10T10:22:28.355Z,90
2018-11-10T10:23:26.896Z,90
2018-11-10T10:24:25.453Z,95
2018-11-10T10:25:24.120Z,95
2018-11-10T10:26:22.642Z,95
2018-11-10T10:27:21.228Z,100
2018-11-10T10:28:19.709Z,100
2018-11-10T10:29:18.243Z,100
2018-11-10T10:30:16.764Z,95
2018-11-10T10:31:15.420Z,95
2018-11-10T10:32:14.062Z,90
2018-11-10T10:33:12.584Z,85
2018-11-10T10:34:11.311Z,80
2018-11-10T10:35:10.060Z,80
2018-11-10T10:36:08.424Z,85
2018-11-10T10:37:07.115Z,85
2018-11-10T10:38:06.375Z,85
2018-11-10T10:39:04.939Z,85
2018-11-10T10:41:49.248Z,85
2018-11-10T10:42:47.823Z,85
2018-11-10T10:43:46.689Z,90
2018-11-10T10:44:45.347Z,90
2018-11-10T10:45:44.003Z,95
2018-11-10T10:46:42.560Z,100
2018-11-10T10:47:41.136Z,105
2018-11-10T10:48:39.719Z,105
2018-11-10T10:49:38.210Z,110
2018-11-10T10:50:36.787Z,110
2018-11-10T10:51:35.391Z,105
2018-11-10T10:52:33.940Z,105
2018-11-10T10:53:32.478Z,105
2018-11-10T10:54:31.367Z,105
2018-11-10T10:55:29.925Z,105
2018-11-10T10:56:28.477Z,105
2018-11-10T10:57:27.000Z,100
2018-11-10T10:58:25.659Z,95
2018-11-10T10:59:24.313Z,90
2018-11-10T11:03:46.607Z,80
2018-11-10T11:04:45.295Z,75
2018-11-10T11:05:43.925Z,75
2018-11-10T11:06:42.378Z,70
2018-11-10T11:07:41.069Z,70
2018-11-10T11:08:39.549Z,75
2018-11-10T11:09:38.492Z,75
2018-11-10T11:10:37.044Z,75
2018-11-10T11:11:35.704Z,80
2018-11-10T11:12:34.274Z,80
2018-11-10T11:13:32.804Z,80
2018-11-10T11:14:31.418Z,85
2018-11-10T11:15:30.114Z,85
2018-11-10T11:16:28.474Z,85
2018-11-10T11:17:27.029Z,90
2018-11-10T11:18:25.564Z,95
2018-11-10T11:19:24.125Z,95
2018-11-10T11:20:22.675Z,100
2018-11-10T11:21:21.374Z,100
2018-11-10T11:22:19.900Z,95
2018-11-10T11:23:18.524Z,95
2018-11-10T11:24:17.004Z,85
2018-11-10T11:25:15.599Z,80
2018-11-10T11:26:14.166Z,80
2018-11-10T11:28:54.503Z,75
2018-11-10T11:29:53.847Z,75
2018-11-10T11:30:52.371Z,75
2018-11-10T11:31:50.948Z,80
2018-11-10T11:32:49.598Z,85
2018-11-10T11:33:48.269Z,80
2018-11-10T11:34:46.715Z,80
2018-11-10T11:35:45.311Z,80
2018-11-10T11:36:43.847Z,80
2018-11-10T11:58:07.027Z,70
2018-11-10T11:59:05.610Z,70
2018-11-10T12:00:04.177Z,70
2018-11-10T12:01:02.756Z,70
2018-11-10T12:02:01.363Z,65
2018-11-10T12:02:59.919Z,65
2018-11-10T12:03:58.474Z,65
2018-11-10T12:04:57.172Z,60
2018-11-10T12:05:55.879Z,55
2018-11-10T12:06:54.774Z,55
2018-11-10T12:07:53.226Z,55
2018-11-10T12:08:52.123Z,55
2018-11-10T12:09:51.554Z,50
2018-11-10T12:10:50.048Z,50
2018-11-10T12:11:48.693Z,45
2018-11-10T12:12:47.588Z,45
2018-11-10T12:13:46.186Z,45
2018-11-10T12:14:44.729Z,45
2018-11-10T12:18:24.489Z,45
2018-11-10T12:19:22.900Z,45
2018-11-10T12:20:21.436Z,45
2018-11-10T12:21:20.578Z,45
2018-11-10T12:22:18.843Z,45
2018-11-10T12:23:17.848Z,45
2018-11-10T12:24:17.800Z,45
2018-11-10T12:25:17.220Z,45
2018-11-10T12:26:16.158Z,45
2018-11-10T12:27:14.668Z,45
2018-11-10T12:28:13.365Z,45
2018-11-10T12:29:12.254Z,40
2018-11-10T12:30:10.895Z,40
2018-11-10T12:31:09.537Z,40
2018-11-10T12:32:08.275Z,40
2018-11-10T12:33:06.586Z,40
2018-11-10T12:34:05.202Z,40
2018-11-10T12:35:04.071Z,35
2018-11-10T12:36:02.913Z,35
2018-11-10T12:37:01.871Z,35
2018-11-10T12:38:00.393Z,35
2018-11-10T12:38:59.145Z,35
2018-11-10T12:41:39.042Z,35
2018-11-10T12:42:37.763Z,35
2018-11-10T12:43:36.272Z,35
2018-11-10T12:44:34.879Z,40
2018-11-10T12:45:34.549Z,40
2018-11-10T12:46:35.081Z,45
2018-11-10T12:47:32.962Z,45
2018-11-10T12:48:31.828Z,50
2018-11-10T12:49:30.942Z,50
2018-11-10T12:50:29.794Z,50
2018-11-10T12:51:28.279Z,50
2018-11-10T12:52:26.886Z,50
2018-11-10T12:53:25.725Z,50
2018-11-10T12:56:24.851Z,55
2018-11-10T12:57:23.548Z,55
2018-11-10T12:58:22.656Z,60
2018-11-10T12:59:21.507Z,60
2018-11-10T13:00:20.128Z,60
2018-11-10T13:01:19.085Z,60
2018-11-10T13:02:17.624Z,55
2018-11-10T13:03:16.493Z,55
2018-11-10T13:04:15.548Z,55
2018-11-10T13:05:14.486Z,60
2018-11-10T13:06:13.134Z,60
2018-11-10T13:07:11.884Z,60
2018-11-10T13:08:10.402Z,60
2018-11-10T13:09:09.000Z,60
2018-11-10T13:10:07.690Z,60
2018-11-10T13:11:06.294Z,65
2018-11-10T13:12:04.754Z,65
2018-11-10T13:13:03.430Z,60
2018-11-10T13:14:02.337Z,60
2018-11-10T13:15:00.781Z,55
2018-11-10T13:15:59.559Z,55
2018-11-10T13:16:58.223Z,55
2018-11-10T13:17:56.748Z,55
2018-11-10T13:18:55.539Z,55
2018-11-10T13:19:53.962Z,55
2018-11-10T13:20:52.545Z,55
2018-11-10T13:21:51.099Z,55
2018-11-10T13:22:49.589Z,55
2018-11-10T13:23:48.347Z,55
2018-11-10T13:24:46.839Z,55
2018-11-10T13:25:45.479Z,55
2018-11-10T13:26:44.912Z,60
2018-11-10T13:27:43.898Z,60
2018-11-10T13:28:42.218Z,60
2018-11-10T13:29:40.969Z,60
2018-11-10T13:30:40.104Z,55
2018-11-10T13:31:38.426Z,55
2018-11-10T13:32:38.049Z,55
2018-11-10T13:33:37.713Z,55
2018-11-10T13:34:37.059Z,55
2018-11-10T13:35:35.909Z,55
2018-11-10T13:36:34.147Z,55
2018-11-10T13:37:33.077Z,55
2018-11-10T13:38:31.373Z,55
2018-11-10T13:39:29.962Z,60
2018-11-10T13:40:28.762Z,55
2018-11-10T13:44:07.563Z,50
2018-11-10T13:45:06.233Z,50
2018-11-10T13:46:04.967Z,50
2018-11-10T13:47:03.659Z,50
2018-11-10T13:52:04.324Z,55
2018-11-10T13:53:03.311Z,55
2018-11-10T13:54:01.183Z,55
2018-11-10T13:54:59.741Z,55
2018-11-10T13:55:58.996Z,50
2018-11-10T13:56:57.654Z,50
2018-11-10T13:57:56.229Z,50
2018-11-10T13:58:54.772Z,50
2018-11-10T13:59:53.347Z,50
2018-11-10T14:00:51.892Z,50
2018-11-10T14:01:50.507Z,50
2018-11-10T14:02:49.181Z,50
2018-11-10T14:03:47.938Z,50
2018-11-10T14:04:46.806Z,50
2018-11-10T14:05:45.247Z,50
2018-11-10T14:06:43.809Z,50
2018-11-10T14:07:42.475Z,50
2018-11-10T14:08:40.923Z,50
2018-11-10T14:10:39.453Z,50
2018-11-10T14:11:39.994Z,45
2018-11-10T14:12:39.651Z,45
2018-11-10T14:13:38.119Z,40
2018-11-10T14:16:19.944Z,35
2018-11-10T14:17:17.427Z,35
2018-11-10T14:18:16.263Z,35
2018-11-10T14:19:16.229Z,35
2018-11-10T14:20:16.330Z,35
2018-11-10T14:21:16.409Z,35
2018-11-10T14:24:58.251Z,40
2018-11-10T14:28:37.125Z,40
2018-11-10T14:29:36.971Z,40
2018-11-10T14:30:36.270Z,35
2018-11-10T14:33:16.598Z,35
2018-11-10T14:34:16.416Z,35
2018-11-10T14:35:15.701Z,40
2018-11-10T14:36:14.287Z,40
2018-11-10T14:41:47.881Z,35
2018-11-10T14:44:30.005Z,30
2018-11-10T14:45:28.663Z,25
2018-11-10T14:48:26.842Z,25
2018-11-10T14:49:25.448Z,20
2018-11-10T14:50:24.053Z,20
2018-11-10T14:51:22.961Z,20
2018-11-10T14:52:21.711Z,20
2018-11-10T14:56:43.823Z,15
2018-11-10T14:57:42.376Z,15
2018-11-10T15:00:49.327Z,10
2018-11-10T15:03:29.927Z,10
2018-11-10T15:04:28.564Z,10
2018-11-10T15:05:27.575Z,15
2018-11-10T15:06:26.047Z,15
2018-11-10T15:07:24.874Z,15
2018-11-10T15:08:23.623Z,15
2018-11-10T15:09:22.249Z,15
2018-11-10T15:10:20.845Z,15
2018-11-10T15:11:19.577Z,15
2018-11-10T15:12:18.225Z,15
2018-11-10T15:13:16.618Z,15
2018-11-10T15:14:15.915Z,15
2018-11-10T15:15:14.373Z,15
2018-11-10T15:16:12.910Z,15
2018-11-10T15:17:11.976Z,15
2018-11-10T15:18:10.691Z,15
2018-11-10T15:19:09.093Z,15
2018-11-10T15:20:07.662Z,15
2018-11-10T15:21:06.309Z,15
2018-11-10T15:22:04.890Z,15
2018-11-10T15:23:03.507Z,15
2018-11-10T15:24:02.186Z,15
2018-11-10T15:25:00.797Z,15
2018-11-10T15:25:59.356Z,10
2018-11-10T15:26:58.969Z,10
2018-11-10T15:27:57.483Z,10
2018-11-10T15:28:56.054Z,10
2018-11-10T15:29:55.116Z,10
2018-11-10T15:30:53.232Z,10
2018-11-10T15:31:51.885Z,10
2018-11-10T15:32:50.448Z,10
2018-11-10T15:33:49.113Z,5
2018-11-10T15:34:49.044Z,5
2018-11-10T15:35:47.164Z,5
2018-11-10T15:36:45.843Z,5
2018-11-10T15:37:44.822Z,5
2018-11-10T15:38:43.402Z,5
2018-11-10T15:39:42.059Z,5
2018-11-10T15:40:41.383Z,5
2018-11-10T15:41:40.432Z,5
2018-11-10T15:42:39.258Z,5
2018-11-10T15:43:37.735Z,0
2018-11-10T15:44:36.324Z,0